This is the latest recevied weather packets stored in our database for station/object WW3TRG. If no packets are shown the sender has not sent any weather packets the latest 10 day(s).
| Time | Temp. | Humidity | Pressure | Rain* | Wind** | Luminosity | Snow |
|---|---|---|---|---|---|---|---|
| 1777786901 | 7.78° C | 60% | 1011.1 hPa | 0 mm | - | 0 W/m² | - |
| 1777786599 | 8.33° C | 60% | 1011.2 hPa | 0 mm | - | 0 W/m² | - |
| 1777786298 | 8.33° C | 61% | 1011.2 hPa | 0 mm | - | 0 W/m² | - |
| 1777785994 | 8.33° C | 61% | 1011.2 hPa | 0 mm | - | 0 W/m² | - |
| 1777785690 | 8.33° C | 62% | 1011 hPa | 0 mm | - | 0 W/m² | - |
| 1777785385 | 8.33° C | 60% | 1011.3 hPa | 0 mm | - | 0 W/m² | - |
| 1777785084 | 8.33° C | 60% | 1011.4 hPa | 0 mm | - | 0 W/m² | - |
| 1777784780 | 8.33° C | 60% | 1011.4 hPa | 0 mm | - | 0 W/m² | - |
| 1777784476 | 8.33° C | 61% | 1011.5 hPa | 0 mm | - | 0 W/m² | - |
| 1777784174 | 8.33° C | 61% | 1011.5 hPa | 0 mm | - | 0 W/m² | - |
| 1777783871 | 8.33° C | 61% | 1011.5 hPa | 0 mm | - | 0 W/m² | - |
| 1777783568 | 8.33° C | 61% | 1011.6 hPa | 0 mm | - | 0 W/m² | - |
| 1777783265 | 8.33° C | 61% | 1011.5 hPa | 0 mm | - | 0 W/m² | - |
| 1777782961 | 8.33° C | 60% | 1011.7 hPa | 0 mm | - | 0 W/m² | - |
| 1777782658 | 8.89° C | 60% | 1011.7 hPa | 0 mm | - | 0 W/m² | - |
| 1777782355 | 8.33° C | 60% | 1011.9 hPa | 0 mm | - | 0 W/m² | - |
| 1777782051 | 8.89° C | 60% | 1011.8 hPa | 0 mm | - | 0 W/m² | - |
| 1777781748 | 8.89° C | 59% | 1011.9 hPa | 0 mm | - | 0 W/m² | - |
| 1777781446 | 8.89° C | 65% | 1011.6 hPa | 0 mm | - | 0 W/m² | - |
| 1777781143 | 8.89° C | 59% | 1011.7 hPa | 0 mm | - | 0 W/m² | - |
| 1777780840 | 8.89° C | 60% | 1011.7 hPa | 0 mm | - | 0 W/m² | - |
| 1777780537 | 8.89° C | 59% | 1011.7 hPa | 0 mm | - | 0 W/m² | - |
| 1777780235 | 8.89° C | 58% | 1011.9 hPa | 0 mm | - | 0 W/m² | - |
| 1777779931 | 8.89° C | 59% | 1011.7 hPa | 0 mm | - | 0 W/m² | - |
| 1777779629 | 9.44° C | 58% | 1011.8 hPa | 0 mm | - | 0 W/m² | - |
* Rain latest hour (hover to see other rain measurements)
** Current wind speed in m/s (hover to see current wind gust speed)